createdAt,value
2022-11-03T00:01:40.756Z,6.66
2022-11-03T00:04:09.742Z,6.62
2022-11-03T00:06:37.973Z,6.63
2022-11-03T00:09:08.688Z,6.59
2022-11-03T00:11:37.938Z,6.56
2022-11-03T00:14:06.414Z,6.61
2022-11-03T00:16:34.266Z,6.57
2022-11-03T00:19:01.782Z,6.59
2022-11-03T00:21:29.885Z,6.57
2022-11-03T00:23:57.650Z,6.59
2022-11-03T00:26:28.558Z,6.54
2022-11-03T00:28:57.717Z,6.61
2022-11-03T00:31:27.375Z,6.50
2022-11-03T00:33:56.095Z,6.49
2022-11-03T00:36:25.569Z,6.52
2022-11-03T00:38:53.108Z,6.52
2022-11-03T00:41:22.193Z,6.43
2022-11-03T00:43:52.355Z,6.42
2022-11-03T00:46:21.531Z,6.53
2022-11-03T00:48:49.510Z,6.44
2022-11-03T00:51:19.202Z,6.44
2022-11-03T00:53:48.394Z,6.44
2022-11-03T00:56:18.474Z,6.44
2022-11-03T00:58:46.766Z,6.40
2022-11-03T01:01:18.011Z,6.37
2022-11-03T01:04:08.665Z,6.40
2022-11-03T01:06:52.066Z,6.34
2022-11-03T01:09:20.479Z,6.37
2022-11-03T01:11:55.110Z,6.40
2022-11-03T01:14:23.052Z,6.32
2022-11-03T01:16:52.141Z,6.35
2022-11-03T01:19:19.821Z,6.30
2022-11-03T01:21:47.339Z,6.33
2022-11-03T01:24:14.860Z,6.28
2022-11-03T01:27:37.367Z,6.26
2022-11-03T01:30:05.557Z,6.27
2022-11-03T01:32:34.536Z,6.24
2022-11-03T01:35:02.309Z,6.16
2022-11-03T01:37:29.992Z,6.20
2022-11-03T01:39:57.634Z,6.21
2022-11-03T01:42:25.322Z,6.23
2022-11-03T01:44:52.943Z,6.20
2022-11-03T01:47:25.511Z,6.16
2022-11-03T01:50:00.265Z,6.13
2022-11-03T01:52:33.970Z,6.13
2022-11-03T01:55:05.578Z,6.21
2022-11-03T01:57:38.498Z,6.14
2022-11-03T02:00:07.902Z,6.09
2022-11-03T02:02:35.979Z,6.08
2022-11-03T02:05:07.259Z,6.09
2022-11-03T02:11:38.989Z,6.16
2022-11-03T02:14:06.458Z,6.03
2022-11-03T02:16:34.185Z,6.00
2022-11-03T02:19:03.381Z,5.97
2022-11-03T02:21:41.418Z,6.06
2022-11-03T02:24:14.842Z,5.95
2022-11-03T02:26:48.191Z,5.97
2022-11-03T02:29:17.430Z,5.98
2022-11-03T02:31:51.573Z,5.94
2022-11-03T02:34:24.586Z,5.94
2022-11-03T02:36:57.550Z,5.96
2022-11-03T02:39:29.870Z,5.96
2022-11-03T02:42:01.535Z,5.95
2022-11-03T02:44:30.206Z,5.89
2022-11-03T02:47:01.619Z,5.85
2022-11-03T02:49:29.390Z,5.90
2022-11-03T02:52:01.546Z,5.92
2022-11-03T02:54:34.871Z,5.94
2022-11-03T02:57:08.858Z,5.87
2022-11-03T02:59:55.188Z,5.77
2022-11-03T03:02:28.695Z,5.78
2022-11-03T03:05:01.815Z,5.92
2022-11-03T03:07:32.722Z,5.83
2022-11-03T03:10:03.925Z,5.76
2022-11-03T03:12:35.946Z,5.71
2022-11-03T03:15:05.990Z,5.80
2022-11-03T03:17:39.733Z,5.77
2022-11-03T03:20:14.162Z,5.79
2022-11-03T03:22:47.436Z,5.72
2022-11-03T03:25:22.781Z,5.75
2022-11-03T03:27:58.293Z,5.67
2022-11-03T03:30:26.414Z,5.72
2022-11-03T03:32:57.782Z,5.71
2022-11-03T03:35:30.748Z,5.64
2022-11-03T03:38:03.318Z,5.74
2022-11-03T03:40:35.493Z,5.61
2022-11-03T03:43:08.189Z,5.59
2022-11-03T03:45:37.017Z,5.62
2022-11-03T03:48:05.031Z,5.62
2022-11-03T03:50:36.324Z,5.59
2022-11-03T03:53:06.505Z,5.57
2022-11-03T03:55:37.137Z,5.61
2022-11-03T03:58:07.906Z,5.64
2022-11-03T04:00:35.586Z,5.50
2022-11-03T04:03:03.100Z,5.54
2022-11-03T04:05:30.622Z,5.09
2022-11-03T04:07:58.510Z,5.42
2022-11-03T04:10:26.170Z,5.47
2022-11-03T04:13:11.609Z,5.52
2022-11-03T04:15:58.210Z,5.52
2022-11-03T04:18:43.526Z,5.54
2022-11-03T04:21:30.978Z,5.48
2022-11-03T04:24:00.185Z,5.49
2022-11-03T04:26:28.823Z,5.46
2022-11-03T04:28:57.123Z,5.41
2022-11-03T04:31:29.669Z,5.47
2022-11-03T04:33:57.451Z,5.46
2022-11-03T04:36:27.023Z,5.41
2022-11-03T04:38:54.517Z,5.50
2022-11-03T04:41:24.943Z,5.45
2022-11-03T04:43:53.661Z,5.41
2022-11-03T04:46:27.246Z,5.32
2022-11-03T04:48:55.722Z,5.45
2022-11-03T04:51:26.112Z,5.36
2022-11-03T04:53:56.339Z,5.46
2022-11-03T04:56:25.881Z,5.48
2022-11-03T04:58:54.217Z,5.42
2022-11-03T05:01:24.874Z,5.42
2022-11-03T05:03:55.838Z,5.43
2022-11-03T05:06:25.209Z,5.42
2022-11-03T05:08:56.004Z,5.43
2022-11-03T05:11:30.860Z,5.36
2022-11-03T05:14:00.331Z,5.35
2022-11-03T05:16:29.234Z,5.39
2022-11-03T05:18:58.479Z,5.08
2022-11-03T05:21:28.476Z,4.99
2022-11-03T05:23:59.571Z,5.37
2022-11-03T05:26:31.816Z,4.65
2022-11-03T05:29:03.111Z,4.91
2022-11-03T05:31:32.192Z,5.11
2022-11-03T05:34:02.856Z,4.97
2022-11-03T05:36:32.776Z,4.72
2022-11-03T05:39:22.156Z,5.28
2022-11-03T05:41:49.647Z,5.35
2022-11-03T05:44:29.892Z,5.36
2022-11-03T05:47:00.955Z,5.35
2022-11-03T05:49:32.079Z,5.38
2022-11-03T05:52:01.503Z,5.35
2022-11-03T05:54:33.378Z,5.30
2022-11-03T05:57:02.246Z,5.37
2022-11-03T05:59:30.220Z,5.33
2022-11-03T06:02:00.952Z,5.34
2022-11-03T06:04:33.672Z,5.31
2022-11-03T06:07:04.045Z,5.16
2022-11-03T06:09:34.916Z,5.18
2022-11-03T06:12:06.497Z,5.21
2022-11-03T06:14:34.730Z,5.23
2022-11-03T06:17:05.909Z,4.74
2022-11-03T06:19:39.095Z,5.16
2022-11-03T06:22:14.868Z,5.27
2022-11-03T06:24:43.538Z,5.27
2022-11-03T06:27:15.294Z,5.34
2022-11-03T06:29:46.727Z,5.30
2022-11-03T06:32:14.449Z,5.43
2022-11-03T06:34:46.514Z,5.36
2022-11-03T06:37:20.823Z,5.38
2022-11-03T06:39:49.589Z,5.34
2022-11-03T06:42:23.118Z,5.35
2022-11-03T06:44:52.467Z,5.31
2022-11-03T06:47:23.943Z,5.34
2022-11-03T06:49:54.814Z,5.38
2022-11-03T06:52:28.011Z,5.41
2022-11-03T06:55:01.199Z,5.38
2022-11-03T06:57:31.629Z,5.35
2022-11-03T07:00:13.354Z,5.43
2022-11-03T07:03:08.271Z,5.30
2022-11-03T07:05:38.840Z,5.45
2022-11-03T07:08:22.215Z,5.34
2022-11-03T07:10:51.460Z,5.44
2022-11-03T07:13:23.550Z,5.52
2022-11-03T07:15:51.879Z,5.35
2022-11-03T07:18:23.964Z,5.50
2022-11-03T07:20:54.423Z,5.55
2022-11-03T07:23:25.527Z,5.06
2022-11-03T07:25:55.176Z,4.77
2022-11-03T07:28:35.993Z,4.84
2022-11-03T07:31:16.504Z,4.74
2022-11-03T07:33:44.391Z,5.05
2022-11-03T07:36:17.651Z,5.55
2022-11-03T07:38:48.910Z,5.52
2022-11-03T07:41:19.500Z,5.67
2022-11-03T07:43:54.260Z,5.27
2022-11-03T07:46:23.017Z,5.45
2022-11-03T07:48:52.851Z,5.60
2022-11-03T07:51:25.004Z,5.48
2022-11-03T07:53:55.894Z,5.59
2022-11-03T07:56:25.998Z,5.42
2022-11-03T07:58:56.851Z,5.60
2022-11-03T08:01:28.171Z,5.68
2022-11-03T08:03:59.405Z,5.66
2022-11-03T08:06:28.305Z,5.69
2022-11-03T08:08:55.657Z,5.71
2022-11-03T08:11:27.772Z,5.86
2022-11-03T08:13:57.123Z,5.86
2022-11-03T08:16:24.691Z,5.84
2022-11-03T08:18:52.163Z,5.97
2022-11-03T08:21:19.640Z,6.02
2022-11-03T08:23:48.471Z,6.09
2022-11-03T08:26:15.854Z,6.10
2022-11-03T08:28:43.176Z,6.16
2022-11-03T08:31:12.930Z,6.19
2022-11-03T08:33:42.083Z,6.14
2022-11-03T08:36:10.092Z,6.29
2022-11-03T08:38:38.012Z,6.32
2022-11-03T08:41:06.980Z,6.35
2022-11-03T08:43:34.451Z,6.40
2022-11-03T08:46:09.782Z,6.56
2022-11-03T08:48:40.715Z,6.56
2022-11-03T08:51:10.195Z,6.64
2022-11-03T08:53:38.410Z,6.69
2022-11-03T08:56:10.539Z,6.75
2022-11-03T08:58:40.649Z,6.81
2022-11-03T09:01:08.181Z,6.73
2022-11-03T09:03:35.887Z,6.79
2022-11-03T09:06:03.477Z,6.92
2022-11-03T09:11:19.754Z,7.08
2022-11-03T09:13:47.059Z,7.06
2022-11-03T09:16:14.385Z,7.29
2022-11-03T09:18:41.721Z,7.26
2022-11-03T09:21:09.368Z,7.32
2022-11-03T09:23:36.879Z,7.55
2022-11-03T09:26:06.161Z,7.72
2022-11-03T09:28:34.963Z,7.51
2022-11-03T09:31:02.280Z,7.71
2022-11-03T09:33:29.624Z,7.79
2022-11-03T09:35:56.955Z,8.30
2022-11-03T09:38:24.450Z,8.30
2022-11-03T09:40:52.016Z,7.98
2022-11-03T09:43:20.012Z,8.03
2022-11-03T09:45:48.935Z,8.30
2022-11-03T09:48:16.649Z,8.19
2022-11-03T09:50:44.279Z,8.47
2022-11-03T09:53:13.163Z,8.43
2022-11-03T09:55:41.236Z,8.20
2022-11-03T09:58:13.628Z,8.24
2022-11-03T10:00:41.265Z,8.44
2022-11-03T10:03:13.220Z,8.98
2022-11-03T10:05:41.303Z,8.50
2022-11-03T10:08:21.493Z,9.31
2022-11-03T10:10:50.524Z,8.86
2022-11-03T10:13:26.372Z,9.18
2022-11-03T10:15:54.123Z,9.58
2022-11-03T10:18:22.991Z,9.79
2022-11-03T10:20:50.629Z,9.62
2022-11-03T10:23:18.092Z,9.69
2022-11-03T10:25:46.402Z,9.06
2022-11-03T10:28:22.271Z,9.73
2022-11-03T10:33:52.954Z,9.75
2022-11-03T10:36:25.552Z,9.91
2022-11-03T10:38:53.953Z,10.31
2022-11-03T10:41:22.781Z,10.21
2022-11-03T10:44:05.631Z,9.81
2022-11-03T10:46:50.184Z,10.44
2022-11-03T10:49:21.199Z,10.16
2022-11-03T10:51:51.161Z,9.87
2022-11-03T10:54:20.732Z,10.19
2022-11-03T10:56:49.771Z,10.21
2022-11-03T10:59:19.435Z,10.02
2022-11-03T11:01:47.284Z,10.05
2022-11-03T11:04:17.382Z,10.04
2022-11-03T11:06:47.022Z,10.43
2022-11-03T11:09:18.404Z,10.34
2022-11-03T11:12:00.033Z,9.98
2022-11-03T11:14:39.244Z,10.66
2022-11-03T11:17:13.016Z,10.61
2022-11-03T11:20:21.092Z,10.14
2022-11-03T11:22:51.242Z,10.33
2022-11-03T11:25:19.535Z,10.15
2022-11-03T11:28:19.496Z,10.77
2022-11-03T11:31:23.347Z,10.47
2022-11-03T11:33:50.974Z,11.67
2022-11-03T11:36:24.440Z,11.07
2022-11-03T11:38:58.978Z,10.69
2022-11-03T11:41:59.609Z,10.78
2022-11-03T11:44:49.151Z,10.86
2022-11-03T11:47:30.241Z,11.07
2022-11-03T11:50:31.275Z,10.55
2022-11-03T11:53:01.871Z,10.58
2022-11-03T11:55:39.250Z,11.15
2022-11-03T11:58:15.544Z,10.99
2022-11-03T12:00:53.068Z,10.61
2022-11-03T12:03:26.462Z,10.89
2022-11-03T12:05:54.006Z,10.69
2022-11-03T12:08:28.504Z,11.24
2022-11-03T12:10:59.166Z,11.39
2022-11-03T12:13:41.752Z,10.94
2022-11-03T12:16:09.877Z,11.58
2022-11-03T12:18:41.684Z,11.72
2022-11-03T12:21:14.288Z,11.59
2022-11-03T12:23:43.359Z,10.97
2022-11-03T12:26:18.522Z,11.15
2022-11-03T12:28:46.218Z,11.47
2022-11-03T12:31:13.859Z,10.81
2022-11-03T12:33:41.359Z,10.97
2022-11-03T12:36:09.861Z,11.02
2022-11-03T12:38:37.536Z,11.00
2022-11-03T12:41:19.504Z,10.93
2022-11-03T12:43:49.475Z,10.99
2022-11-03T12:46:17.576Z,10.84
2022-11-03T12:48:45.078Z,10.67
2022-11-03T12:51:13.655Z,10.80
2022-11-03T12:53:41.181Z,10.68
2022-11-03T12:56:09.878Z,10.77
2022-11-03T12:58:38.171Z,10.78
2022-11-03T13:01:07.927Z,10.75
2022-11-03T13:03:36.950Z,10.89
2022-11-03T13:06:09.821Z,10.87
2022-11-03T13:08:37.950Z,10.88
2022-11-03T13:11:26.071Z,10.77
2022-11-03T13:13:54.065Z,10.79
2022-11-03T13:16:23.155Z,10.72
2022-11-03T13:18:50.644Z,10.78
2022-11-03T13:21:18.439Z,10.71
2022-11-03T13:23:46.181Z,10.77
2022-11-03T13:26:13.647Z,10.75
2022-11-03T13:28:41.550Z,10.76
2022-11-03T13:31:09.295Z,10.77
2022-11-03T13:33:38.104Z,10.67
2022-11-03T13:36:06.399Z,10.74
2022-11-03T13:38:34.083Z,10.84
2022-11-03T13:41:07.246Z,10.70
2022-11-03T13:43:36.399Z,10.63
2022-11-03T13:46:05.031Z,10.72
2022-11-03T13:51:21.742Z,10.64
2022-11-03T14:04:44.824Z,10.50
2022-11-03T14:07:13.937Z,10.47
2022-11-03T14:09:41.976Z,10.38
2022-11-03T14:12:27.236Z,10.41
2022-11-03T14:14:54.784Z,10.38
2022-11-03T14:17:22.246Z,10.41
2022-11-03T14:19:52.718Z,10.43
2022-11-03T14:22:23.329Z,10.33
2022-11-03T14:24:51.505Z,10.35
2022-11-03T14:27:19.795Z,10.32
2022-11-03T14:29:49.619Z,10.30
2022-11-03T14:32:18.313Z,10.24
2022-11-03T14:34:45.727Z,10.25
2022-11-03T14:37:13.839Z,10.28
2022-11-03T14:39:43.031Z,10.22
2022-11-03T14:42:15.207Z,10.22
2022-11-03T14:44:44.507Z,10.24
2022-11-03T14:47:13.654Z,10.18
2022-11-03T14:49:41.345Z,10.17
2022-11-03T14:52:08.980Z,10.16
2022-11-03T14:54:37.034Z,10.14
2022-11-03T14:57:06.355Z,10.13
2022-11-03T14:59:34.772Z,10.09
2022-11-03T15:02:03.327Z,10.04
2022-11-03T15:04:31.191Z,10.09
2022-11-03T15:06:58.709Z,10.11
2022-11-03T15:09:26.177Z,10.08
2022-11-03T15:11:54.093Z,9.99
2022-11-03T15:14:22.896Z,10.02
2022-11-03T15:16:50.371Z,9.98
2022-11-03T15:19:17.916Z,9.97
2022-11-03T15:21:45.458Z,9.87
2022-11-03T15:27:00.386Z,9.83
2022-11-03T15:29:29.186Z,9.76
2022-11-03T15:31:56.661Z,9.80
2022-11-03T15:34:24.228Z,9.85
2022-11-03T15:36:51.740Z,9.69
2022-11-03T15:39:19.256Z,9.68
2022-11-03T15:41:46.721Z,9.69
2022-11-03T15:44:14.220Z,9.67
2022-11-03T15:46:43.065Z,9.70
2022-11-03T15:49:10.550Z,9.68
2022-11-03T15:51:38.056Z,9.73
2022-11-03T15:54:05.583Z,9.67
2022-11-03T15:56:33.063Z,9.61
2022-11-03T15:59:00.562Z,9.62
2022-11-03T16:01:28.259Z,9.54
2022-11-03T16:03:57.195Z,9.37
2022-11-03T16:06:46.462Z,9.38
2022-11-03T16:09:12.573Z,9.49
2022-11-03T16:11:40.070Z,9.47
2022-11-03T16:14:07.561Z,9.36
2022-11-03T16:16:35.034Z,9.39
2022-11-03T16:19:04.231Z,9.48
2022-11-03T16:21:31.702Z,9.42
2022-11-03T16:23:59.212Z,9.49
2022-11-03T16:26:26.738Z,9.30
2022-11-03T16:28:54.256Z,9.26
2022-11-03T16:31:21.727Z,9.29
2022-11-03T16:33:49.189Z,9.07
2022-11-03T16:36:18.577Z,9.12
2022-11-03T16:38:46.086Z,9.37
2022-11-03T16:41:13.770Z,9.39
2022-11-03T16:43:41.227Z,9.46
2022-11-03T16:46:08.702Z,9.22
2022-11-03T16:48:36.162Z,9.13
2022-11-03T16:51:03.613Z,9.27
2022-11-03T16:53:32.466Z,9.26
2022-11-03T16:56:00.015Z,9.25
2022-11-03T16:58:27.540Z,9.12
2022-11-03T17:00:55.197Z,9.21
2022-11-03T17:03:22.761Z,9.16
2022-11-03T17:05:50.280Z,9.24
2022-11-03T17:08:46.904Z,8.95
2022-11-03T17:11:06.988Z,9.03
2022-11-03T17:13:34.500Z,9.09
2022-11-03T17:16:01.993Z,9.03
2022-11-03T17:18:29.739Z,9.19
2022-11-03T17:20:57.391Z,9.08
2022-11-03T17:23:24.884Z,9.22
2022-11-03T17:25:52.406Z,9.08
2022-11-03T17:28:21.316Z,9.18
2022-11-03T17:30:48.844Z,9.30
2022-11-03T17:33:19.566Z,9.17
2022-11-03T17:35:47.647Z,9.30
2022-11-03T17:38:17.160Z,9.23
2022-11-03T17:40:46.827Z,9.28
2022-11-03T17:43:20.315Z,9.15
2022-11-03T17:45:49.641Z,9.19
2022-11-03T17:48:17.182Z,9.21
2022-11-03T17:50:47.468Z,9.32
2022-11-03T17:53:21.900Z,8.85
2022-11-03T17:56:08.898Z,9.08
2022-11-03T17:58:44.846Z,8.85
2022-11-03T18:01:20.227Z,9.02
2022-11-03T18:03:47.814Z,9.04
2022-11-03T18:06:18.876Z,9.13
2022-11-03T18:08:46.416Z,8.97
2022-11-03T18:11:30.728Z,8.95
2022-11-03T18:13:58.412Z,9.04
2022-11-03T18:16:27.465Z,8.95
2022-11-03T18:18:55.109Z,8.81
2022-11-03T18:21:24.196Z,8.94
2022-11-03T18:23:51.732Z,9.03
2022-11-03T18:26:20.678Z,8.94
2022-11-03T18:28:49.169Z,8.89
2022-11-03T18:31:21.620Z,8.80
2022-11-03T18:33:50.736Z,9.01
2022-11-03T18:36:19.546Z,8.81
2022-11-03T18:38:48.355Z,9.02
2022-11-03T18:41:39.205Z,8.99
2022-11-03T18:44:14.061Z,8.95
2022-11-03T18:46:41.439Z,8.93
2022-11-03T18:49:10.319Z,9.11
2022-11-03T18:51:38.303Z,9.03
2022-11-03T18:54:06.480Z,8.93
2022-11-03T18:56:37.261Z,8.98
2022-11-03T18:59:06.071Z,9.06
2022-11-03T19:01:33.733Z,9.04
2022-11-03T19:04:01.656Z,8.97
2022-11-03T19:06:30.509Z,9.11
2022-11-03T19:09:00.318Z,9.08
2022-11-03T19:11:28.216Z,9.12
2022-11-03T19:13:55.937Z,9.09
2022-11-03T19:16:24.925Z,9.15
2022-11-03T19:18:52.743Z,8.90
2022-11-03T19:21:23.346Z,9.01
2022-11-03T19:23:58.162Z,9.04
2022-11-03T19:26:30.288Z,9.01
2022-11-03T19:29:01.272Z,8.90
2022-11-03T19:31:33.423Z,8.86
2022-11-03T19:34:01.719Z,8.83
2022-11-03T19:36:31.208Z,9.08
2022-11-03T19:39:00.981Z,9.06
2022-11-03T19:41:46.292Z,9.13
2022-11-03T19:44:14.539Z,9.09
2022-11-03T19:46:42.867Z,9.15
2022-11-03T19:49:14.481Z,9.19
2022-11-03T19:51:42.181Z,9.15
2022-11-03T19:54:16.377Z,9.08
2022-11-03T19:56:43.960Z,9.23
2022-11-03T19:59:13.294Z,9.23
2022-11-03T20:01:40.918Z,9.27
2022-11-03T20:04:09.475Z,9.24
2022-11-03T20:06:38.098Z,9.23
2022-11-03T20:09:08.389Z,9.30
2022-11-03T20:11:37.864Z,9.05
2022-11-03T20:14:05.732Z,9.02
2022-11-03T20:16:33.216Z,9.13
2022-11-03T20:19:00.717Z,8.95
2022-11-03T20:21:34.223Z,9.19
2022-11-03T20:24:02.253Z,9.00
2022-11-03T20:26:30.110Z,8.80
2022-11-03T20:29:00.117Z,9.16
2022-11-03T20:31:27.755Z,9.26
2022-11-03T20:33:55.228Z,8.94
2022-11-03T20:36:22.730Z,9.07
2022-11-03T20:38:53.211Z,9.11
2022-11-03T20:41:20.816Z,9.10
2022-11-03T20:43:49.591Z,9.13
2022-11-03T20:46:29.008Z,9.20
2022-11-03T20:48:57.491Z,9.20
2022-11-03T20:51:27.733Z,9.25
2022-11-03T20:53:55.822Z,8.90
2022-11-03T20:56:25.237Z,8.94
2022-11-03T20:58:53.517Z,9.24
2022-11-03T21:01:27.475Z,9.19
2022-11-03T21:04:00.290Z,8.80
2022-11-03T21:06:29.943Z,8.79
2022-11-03T21:08:57.623Z,8.87
2022-11-03T21:11:40.343Z,8.91
2022-11-03T21:14:15.357Z,9.24
2022-11-03T21:17:01.987Z,9.22
2022-11-03T21:19:49.196Z,9.06
2022-11-03T21:22:50.210Z,8.58
2022-11-03T21:25:11.430Z,8.99
2022-11-03T21:27:41.720Z,9.18
2022-11-03T21:30:11.645Z,8.82
2022-11-03T21:32:40.568Z,9.06
2022-11-03T21:35:08.876Z,9.00
2022-11-03T21:37:36.376Z,9.16
2022-11-03T21:40:04.021Z,8.96
2022-11-03T21:42:49.311Z,8.59
2022-11-03T21:45:18.620Z,9.09
2022-11-03T21:48:13.231Z,9.20
2022-11-03T21:50:40.367Z,9.14
2022-11-03T21:53:08.304Z,9.21
2022-11-03T21:55:36.704Z,9.25
2022-11-03T21:58:04.982Z,9.24
2022-11-03T22:00:33.104Z,8.98
2022-11-03T22:03:02.294Z,9.16
2022-11-03T22:05:30.080Z,9.22
2022-11-03T22:07:57.587Z,9.20
2022-11-03T22:10:25.893Z,9.25
2022-11-03T22:12:53.402Z,9.14
2022-11-03T22:15:38.454Z,8.54
2022-11-03T22:18:08.154Z,8.53
2022-11-03T22:20:55.073Z,8.99
2022-11-03T22:23:40.315Z,8.66
2022-11-03T22:26:28.465Z,9.06
2022-11-03T22:29:12.432Z,8.81
2022-11-03T22:31:42.634Z,8.94
2022-11-03T22:34:29.389Z,8.62
2022-11-03T22:36:56.926Z,9.01
2022-11-03T22:39:42.309Z,9.15
2022-11-03T22:42:29.328Z,8.96
2022-11-03T22:45:14.020Z,9.00
2022-11-03T22:47:41.511Z,9.05
2022-11-03T22:50:10.882Z,9.13
2022-11-03T22:52:38.393Z,9.17
2022-11-03T22:55:05.390Z,9.17
2022-11-03T22:57:32.957Z,9.10
2022-11-03T23:00:00.456Z,8.69
2022-11-03T23:02:27.961Z,8.89
2022-11-03T23:04:55.483Z,9.05
2022-11-03T23:07:29.941Z,9.13
2022-11-03T23:09:59.113Z,9.03
2022-11-03T23:12:26.614Z,8.56
2022-11-03T23:15:11.943Z,8.83
2022-11-03T23:17:57.278Z,9.07
2022-11-03T23:20:42.623Z,9.09
2022-11-03T23:23:31.505Z,9.03
2022-11-03T23:25:57.978Z,9.00
2022-11-03T23:28:25.496Z,9.11
2022-11-03T23:30:53.013Z,9.13
2022-11-03T23:33:20.471Z,9.14
2022-11-03T23:35:47.982Z,9.19
2022-11-03T23:38:16.805Z,9.14
2022-11-03T23:40:44.314Z,9.11
2022-11-03T23:43:11.858Z,8.98
2022-11-03T23:45:56.963Z,9.02
2022-11-03T23:48:42.745Z,9.10
2022-11-03T23:51:10.222Z,9.01
2022-11-03T23:53:39.073Z,9.08
2022-11-03T23:56:25.242Z,9.02
2022-11-03T23:58:53.146Z,9.02
